Hoag, Nebraska
Current Conditions -  °F | °C
As of 12:35 PM on Thursday 27 Nov 2014 (Local Time) from KBIE Reporting Station
Clear Clear  
Wind Chill: 22°   Ceiling: Unl
Heat Index: 30°   Visibility: 10mi
Dew Point: 17°   Wind: 9mph
Humidity: 57%   Direction: 160°SSE
Pressure: 30.42"   Gusts: NA
Location:  40.2674°N, 96.7699°W
Report Text: KBIE 271835Z AUTO 16008KT 10SM CLR M01/M09 A3042 RMK AO2 T10101086
Loading
Personal Weather Stations






























Interactive Weather Map New forecast layout! Learn more

10-Day Weather Forecast

Advertisements
Track Severe Weather on mobile